createdAt,value
2019-05-12T00:00:31.803Z,97.50
2019-05-12T00:03:01.245Z,97.90
2019-05-12T00:05:29.686Z,98.10
2019-05-12T00:07:59.890Z,97.80
2019-05-12T00:10:28.480Z,98.20
2019-05-12T00:12:58.218Z,98.70
2019-05-12T00:15:29.125Z,99.00
2019-05-12T00:17:58.621Z,99.00
2019-05-12T00:20:28.396Z,99.30
2019-05-12T00:23:01.779Z,99.60
2019-05-12T00:25:30.200Z,99.50
2019-05-12T00:27:58.839Z,99.90
2019-05-12T00:30:44.805Z,99.90
2019-05-12T00:33:13.338Z,99.90
2019-05-12T00:35:41.823Z,99.90
2019-05-12T00:38:11.680Z,99.90
2019-05-12T00:40:40.122Z,99.90
2019-05-12T00:43:09.358Z,99.90
2019-05-12T00:45:39.732Z,99.90
2019-05-12T00:48:09.382Z,99.90
2019-05-12T00:50:38.586Z,99.90
2019-05-12T00:53:09.463Z,99.90
2019-05-12T00:55:38.505Z,99.90
2019-05-12T00:58:08.589Z,99.90
2019-05-12T01:00:41.642Z,99.90
2019-05-12T01:03:10.227Z,99.90
2019-05-12T01:05:38.799Z,99.90
2019-05-12T01:08:12.848Z,99.90
2019-05-12T01:10:44.098Z,99.90
2019-05-12T01:13:12.993Z,99.90
2019-05-12T01:15:58.531Z,99.90
2019-05-12T01:18:24.898Z,99.90
2019-05-12T01:20:53.837Z,99.90
2019-05-12T01:23:23.705Z,99.90
2019-05-12T01:25:52.178Z,99.90
2019-05-12T01:28:20.694Z,99.90
2019-05-12T01:30:50.402Z,99.90
2019-05-12T01:33:19.648Z,99.90
2019-05-12T01:35:48.411Z,99.70
2019-05-12T01:38:18.635Z,99.40
2019-05-12T01:40:48.024Z,99.50
2019-05-12T01:43:21.430Z,99.70
2019-05-12T01:45:49.921Z,99.40
2019-05-12T01:48:19.984Z,99.90
2019-05-12T01:50:49.463Z,99.80
2019-05-12T01:53:18.262Z,99.60
2019-05-12T01:55:48.533Z,99.20
2019-05-12T01:58:19.592Z,99.20
2019-05-12T02:00:48.915Z,99.40
2019-05-12T02:03:17.875Z,99.20
2019-05-12T02:05:55.307Z,99.20
2019-05-12T02:08:27.823Z,99.20
2019-05-12T02:11:13.707Z,98.90
2019-05-12T02:13:42.233Z,99.20
2019-05-12T02:16:10.780Z,99.20
2019-05-12T02:18:39.747Z,98.90
2019-05-12T02:21:08.460Z,98.60
2019-05-12T02:23:38.706Z,98.80
2019-05-12T02:26:08.342Z,98.80
2019-05-12T02:28:39.309Z,98.70
2019-05-12T02:31:09.615Z,98.60
2019-05-12T02:33:37.266Z,98.60
2019-05-12T02:36:05.747Z,98.30
2019-05-12T02:38:34.157Z,98.40
2019-05-12T02:41:04.649Z,98.70
2019-05-12T02:43:34.798Z,98.80
2019-05-12T02:46:04.860Z,98.70
2019-05-12T02:48:35.614Z,98.70
2019-05-12T02:51:05.480Z,98.50
2019-05-12T02:53:35.373Z,98.60
2019-05-12T02:56:05.215Z,98.40
2019-05-12T02:58:35.225Z,98.30
2019-05-12T03:01:05.613Z,98.40
2019-05-12T03:03:36.816Z,98.60
2019-05-12T03:06:05.701Z,98.30
2019-05-12T03:08:36.467Z,98.70
2019-05-12T03:11:06.242Z,99.10
2019-05-12T03:13:35.247Z,99.10
2019-05-12T03:16:04.825Z,98.80
2019-05-12T03:18:34.799Z,99.00
2019-05-12T03:21:06.635Z,99.20
2019-05-12T03:23:35.363Z,99.30
2019-05-12T03:26:05.169Z,99.40
2019-05-12T03:28:35.704Z,99.80
2019-05-12T03:31:07.894Z,99.90
2019-05-12T03:33:42.676Z,99.90
2019-05-12T03:36:09.232Z,99.90
2019-05-12T03:38:36.217Z,99.90
2019-05-12T03:43:39.134Z,99.90
2019-05-12T03:46:07.660Z,99.90
2019-05-12T03:48:36.248Z,99.90
2019-05-12T03:51:06.233Z,99.90
2019-05-12T03:53:35.454Z,99.90
2019-05-12T03:56:04.655Z,99.90
2019-05-12T03:58:34.603Z,99.90
2019-05-12T04:01:04.930Z,99.90
2019-05-12T04:03:34.688Z,99.90
2019-05-12T04:06:04.769Z,99.90
2019-05-12T04:08:34.656Z,99.90
2019-05-12T04:11:05.309Z,99.90
2019-05-12T04:13:35.922Z,99.90
2019-05-12T04:16:15.872Z,99.90
2019-05-12T04:18:45.081Z,99.90
2019-05-12T04:21:15.580Z,99.90
2019-05-12T04:23:44.414Z,99.90
2019-05-12T04:26:16.790Z,99.90
2019-05-12T04:28:45.531Z,99.90
2019-05-12T04:31:15.462Z,99.90
2019-05-12T04:33:45.171Z,99.90
2019-05-12T04:36:14.833Z,99.90
2019-05-12T04:38:44.971Z,99.90
2019-05-12T04:41:20.113Z,99.90
2019-05-12T04:43:47.659Z,99.90
2019-05-12T04:46:16.109Z,99.90
2019-05-12T04:48:45.482Z,99.90
2019-05-12T04:51:15.580Z,99.90
2019-05-12T04:53:45.008Z,99.90
2019-05-12T04:56:19.147Z,99.90
2019-05-12T04:58:45.367Z,99.90
2019-05-12T05:01:15.535Z,99.90
2019-05-12T05:03:44.407Z,99.90
2019-05-12T05:06:14.897Z,99.90
2019-05-12T05:08:44.298Z,99.90
2019-05-12T05:11:14.837Z,99.90
2019-05-12T05:13:44.339Z,99.30
2019-05-12T05:16:14.366Z,96.60
2019-05-12T05:18:44.004Z,96.00
2019-05-12T05:21:13.883Z,96.10
2019-05-12T05:23:44.305Z,96.80
2019-05-12T05:26:22.196Z,97.00
2019-05-12T05:28:43.672Z,96.70
2019-05-12T05:31:14.035Z,97.10
2019-05-12T05:33:43.627Z,97.40
2019-05-12T05:36:15.220Z,97.60
2019-05-12T05:38:43.716Z,97.20
2019-05-12T05:41:13.409Z,97.80
2019-05-12T05:43:43.795Z,97.30
2019-05-12T05:46:13.835Z,97.70
2019-05-12T05:48:43.970Z,98.00
2019-05-12T05:51:13.642Z,97.70
2019-05-12T05:53:44.271Z,95.60
2019-05-12T05:56:14.389Z,95.70
2019-05-12T05:58:47.217Z,95.20
2019-05-12T06:01:14.307Z,95.10
2019-05-12T06:03:45.581Z,94.90
2019-05-12T06:06:15.427Z,94.30
2019-05-12T06:08:46.008Z,92.50
2019-05-12T06:11:23.090Z,92.50
2019-05-12T06:13:46.327Z,92.50
2019-05-12T06:16:20.717Z,92.90
2019-05-12T06:18:45.544Z,92.70
2019-05-12T06:21:13.972Z,92.70
2019-05-12T06:23:43.477Z,92.50
2019-05-12T06:26:14.009Z,92.00
2019-05-12T06:28:44.025Z,91.90
2019-05-12T06:31:13.817Z,92.30
2019-05-12T06:33:44.697Z,92.00
2019-05-12T06:36:21.729Z,92.60
2019-05-12T06:38:45.601Z,92.70
2019-05-12T06:41:20.672Z,92.80
2019-05-12T06:43:45.613Z,91.90
2019-05-12T06:46:21.002Z,91.10
2019-05-12T06:48:45.698Z,90.10
2019-05-12T06:51:22.181Z,86.10
2019-05-12T06:53:46.651Z,85.60
2019-05-12T06:56:19.617Z,86.30
2019-05-12T06:58:46.506Z,85.00
2019-05-12T07:01:19.531Z,83.70
2019-05-12T07:03:45.310Z,84.10
2019-05-12T07:06:17.954Z,82.20
2019-05-12T07:08:45.026Z,83.00
2019-05-12T07:11:14.279Z,83.20
2019-05-12T07:13:43.632Z,82.50
2019-05-12T07:16:23.121Z,84.90
2019-05-12T07:18:48.561Z,87.50
2019-05-12T07:21:20.171Z,87.00
2019-05-12T07:23:48.095Z,86.80
2019-05-12T07:26:19.382Z,88.10
2019-05-12T07:28:48.416Z,87.20
2019-05-12T07:31:17.172Z,88.10
2019-05-12T07:33:46.169Z,86.40
2019-05-12T07:36:16.780Z,85.70
2019-05-12T07:38:47.533Z,86.20
2019-05-12T07:41:16.050Z,85.20
2019-05-12T07:43:50.457Z,84.60
2019-05-12T07:46:18.560Z,84.60
2019-05-12T07:48:50.766Z,85.10
2019-05-12T07:51:17.221Z,85.10
2019-05-12T07:53:54.243Z,85.40
2019-05-12T07:56:19.536Z,85.40
2019-05-12T07:58:53.014Z,87.60
2019-05-12T08:01:17.606Z,86.20
2019-05-12T08:03:46.138Z,82.50
2019-05-12T08:06:14.531Z,78.40
2019-05-12T08:08:50.366Z,71.90
2019-05-12T08:11:14.944Z,67.20
2019-05-12T08:13:44.046Z,61.10
2019-05-12T08:16:14.207Z,60.40
2019-05-12T08:18:44.500Z,61.60
2019-05-12T08:21:13.992Z,59.50
2019-05-12T08:23:44.476Z,58.40
2019-05-12T08:26:18.568Z,56.10
2019-05-12T08:28:44.834Z,57.20
2019-05-12T08:31:14.097Z,53.20
2019-05-12T08:33:43.728Z,53.10
2019-05-12T08:36:16.042Z,53.30
2019-05-12T08:38:44.408Z,50.70
2019-05-12T08:41:14.548Z,50.00
2019-05-12T08:43:47.196Z,48.00
2019-05-12T08:46:15.682Z,45.80
2019-05-12T08:48:44.738Z,48.30
2019-05-12T08:51:16.806Z,48.60
2019-05-12T08:53:44.040Z,50.90
2019-05-12T08:56:18.652Z,57.10
2019-05-12T08:58:48.230Z,60.50
2019-05-12T09:01:13.818Z,63.80
2019-05-12T09:03:44.297Z,58.50
2019-05-12T09:06:15.553Z,53.10
2019-05-12T09:08:49.239Z,54.70
2019-05-12T09:11:14.662Z,53.00
2019-05-12T09:13:43.501Z,52.90
2019-05-12T09:16:14.052Z,49.20
2019-05-12T09:18:43.561Z,46.40
2019-05-12T09:21:14.143Z,49.50
2019-05-12T09:23:45.397Z,49.80
2019-05-12T09:26:13.639Z,52.80
2019-05-12T09:28:49.263Z,52.50
2019-05-12T09:31:14.103Z,52.80
2019-05-12T09:33:44.505Z,49.70
2019-05-12T09:36:19.831Z,44.70
2019-05-12T09:38:44.729Z,43.90
2019-05-12T09:41:13.967Z,41.00
2019-05-12T09:43:48.347Z,42.10
2019-05-12T09:46:14.538Z,45.70
2019-05-12T09:48:46.863Z,52.20
2019-05-12T09:51:16.934Z,51.30
2019-05-12T09:53:50.747Z,47.50
2019-05-12T09:56:14.497Z,44.90
2019-05-12T09:58:43.614Z,42.20
2019-05-12T10:01:13.975Z,39.90
2019-05-12T10:03:43.800Z,39.90
2019-05-12T10:06:17.861Z,38.80
2019-05-12T10:08:43.645Z,40.00
2019-05-12T10:11:16.438Z,41.40
2019-05-12T10:13:44.986Z,39.40
2019-05-12T10:16:13.553Z,38.10
2019-05-12T10:18:50.774Z,38.10
2019-05-12T10:21:15.330Z,36.50
2019-05-12T10:23:43.752Z,38.20
2019-05-12T10:26:14.595Z,40.80
2019-05-12T10:28:51.023Z,39.20
2019-05-12T10:31:14.009Z,37.80
2019-05-12T10:33:43.322Z,35.20
2019-05-12T10:36:11.922Z,36.30
2019-05-12T10:38:40.573Z,38.30
2019-05-12T10:41:09.075Z,40.10
2019-05-12T10:43:37.506Z,40.60
2019-05-12T10:46:06.117Z,40.60
2019-05-12T10:48:34.538Z,42.10
2019-05-12T10:51:02.953Z,43.90
2019-05-12T10:53:34.022Z,45.10
2019-05-12T10:56:02.163Z,47.70
2019-05-12T10:58:30.603Z,49.30
2019-05-12T11:01:05.338Z,49.40
2019-05-12T11:03:30.047Z,45.10
2019-05-12T11:06:02.631Z,40.10
2019-05-12T11:08:28.761Z,39.90
2019-05-12T11:11:01.114Z,39.10
2019-05-12T11:13:27.360Z,39.30
2019-05-12T11:15:56.011Z,37.30
2019-05-12T11:18:30.245Z,36.60
2019-05-12T11:20:54.692Z,39.00
2019-05-12T11:23:29.562Z,39.30
2019-05-12T11:26:03.897Z,37.60
2019-05-12T11:28:33.638Z,37.70
2019-05-12T11:31:02.711Z,35.00
2019-05-12T11:33:31.121Z,36.10
2019-05-12T11:36:00.130Z,38.00
2019-05-12T11:38:28.967Z,39.10
2019-05-12T11:40:57.392Z,39.40
2019-05-12T11:43:26.019Z,40.60
2019-05-12T11:45:54.565Z,39.80
2019-05-12T11:48:23.697Z,39.30
2019-05-12T11:50:54.569Z,38.50
2019-05-12T11:53:30.306Z,40.60
2019-05-12T11:55:54.300Z,42.40
2019-05-12T11:58:23.582Z,45.10
2019-05-12T12:00:58.662Z,42.10
2019-05-12T12:03:24.564Z,38.40
2019-05-12T12:05:53.787Z,35.40
2019-05-12T12:08:26.410Z,35.60
2019-05-12T12:10:54.165Z,37.00
2019-05-12T12:13:28.569Z,35.60
2019-05-12T12:15:55.244Z,35.50
2019-05-12T12:18:24.984Z,39.70
2019-05-12T12:20:55.089Z,42.10
2019-05-12T12:23:24.126Z,38.80
2019-05-12T12:25:53.461Z,38.60
2019-05-12T12:28:24.195Z,37.00
2019-05-12T12:30:56.779Z,37.80
2019-05-12T12:33:23.466Z,38.10
2019-05-12T12:35:56.577Z,37.80
2019-05-12T12:38:22.791Z,36.70
2019-05-12T12:40:53.403Z,35.80
2019-05-12T12:43:21.499Z,35.20
2019-05-12T12:45:51.821Z,35.20
2019-05-12T12:48:28.331Z,34.90
2019-05-12T12:50:50.540Z,37.50
2019-05-12T12:53:19.321Z,39.10
2019-05-12T12:55:48.519Z,37.10
2019-05-12T12:58:21.163Z,36.90
2019-05-12T13:00:53.651Z,34.00
2019-05-12T13:03:19.845Z,35.20
2019-05-12T13:05:48.288Z,35.90
2019-05-12T13:08:16.724Z,36.40
2019-05-12T13:10:49.488Z,37.90
2019-05-12T13:13:16.449Z,39.60
2019-05-12T13:15:45.440Z,40.90
2019-05-12T13:18:15.983Z,41.70
2019-05-12T13:20:46.847Z,44.00
2019-05-12T13:23:15.380Z,46.10
2019-05-12T13:25:48.381Z,46.30
2019-05-12T13:28:19.125Z,46.20
2019-05-12T13:30:48.857Z,45.50
2019-05-12T13:33:18.213Z,45.80
2019-05-12T13:35:50.270Z,48.10
2019-05-12T13:38:16.342Z,48.30
2019-05-12T13:40:44.786Z,46.90
2019-05-12T13:43:15.563Z,46.10
2019-05-12T13:45:44.880Z,47.80
2019-05-12T13:48:17.997Z,47.80
2019-05-12T13:50:43.605Z,42.40
2019-05-12T13:53:13.856Z,40.40
2019-05-12T13:55:45.470Z,37.70
2019-05-12T13:58:13.651Z,40.10
2019-05-12T14:00:50.803Z,41.80
2019-05-12T14:03:14.001Z,45.80
2019-05-12T14:05:50.255Z,47.60
2019-05-12T14:08:14.666Z,49.00
2019-05-12T14:10:52.896Z,49.00
2019-05-12T14:13:14.561Z,48.80
2019-05-12T14:15:44.351Z,50.20
2019-05-12T14:18:18.466Z,54.40
2019-05-12T14:20:45.234Z,55.50
2019-05-12T14:23:14.634Z,56.00
2019-05-12T14:25:43.973Z,55.40
2019-05-12T14:28:16.250Z,55.00
2019-05-12T14:30:47.368Z,54.60
2019-05-12T14:33:14.306Z,56.60
2019-05-12T14:35:45.384Z,56.10
2019-05-12T14:38:14.191Z,55.20
2019-05-12T14:40:42.858Z,54.80
2019-05-12T14:43:16.754Z,51.30
2019-05-12T14:45:43.862Z,48.00
2019-05-12T14:48:13.696Z,45.00
2019-05-12T14:50:43.976Z,42.00
2019-05-12T14:53:13.846Z,41.80
2019-05-12T14:55:42.715Z,42.20
2019-05-12T14:58:18.470Z,46.20
2019-05-12T15:00:41.299Z,45.50
2019-05-12T15:03:15.377Z,46.60
2019-05-12T15:05:41.403Z,46.60
2019-05-12T15:08:10.319Z,46.80
2019-05-12T15:10:39.058Z,48.00
2019-05-12T15:13:07.510Z,47.90
2019-05-12T15:15:36.015Z,49.30
2019-05-12T15:18:10.089Z,48.50
2019-05-12T15:20:34.973Z,48.90
2019-05-12T15:23:03.870Z,49.30
2019-05-12T15:25:35.483Z,51.30
2019-05-12T15:28:03.865Z,49.70
2019-05-12T15:30:33.737Z,50.40
2019-05-12T15:33:04.584Z,51.40
2019-05-12T15:35:34.397Z,52.90
2019-05-12T15:38:03.867Z,54.10
2019-05-12T15:40:32.501Z,55.80
2019-05-12T15:43:05.243Z,57.50
2019-05-12T15:45:31.352Z,58.00
2019-05-12T15:47:59.844Z,59.00
2019-05-12T15:50:28.419Z,59.80
2019-05-12T15:52:57.302Z,58.80
2019-05-12T15:55:32.705Z,61.10
2019-05-12T15:57:56.073Z,60.20
2019-05-12T16:00:25.044Z,63.50
2019-05-12T16:02:53.599Z,62.70
2019-05-12T16:05:26.476Z,62.50
2019-05-12T16:07:54.039Z,63.50
2019-05-12T16:10:23.656Z,64.10
2019-05-12T16:12:52.350Z,63.90
2019-05-12T16:15:21.185Z,63.90
2019-05-12T16:17:49.794Z,65.20
2019-05-12T16:20:19.934Z,65.80
2019-05-12T16:22:48.818Z,66.40
2019-05-12T16:25:20.533Z,65.70
2019-05-12T16:27:47.626Z,65.10
2019-05-12T16:30:20.161Z,66.30
2019-05-12T16:32:48.014Z,67.00
2019-05-12T16:35:20.336Z,65.60
2019-05-12T16:37:47.611Z,66.20
2019-05-12T16:40:16.532Z,65.60
2019-05-12T16:42:53.582Z,64.50
2019-05-12T16:45:15.909Z,64.30
2019-05-12T16:47:44.994Z,64.60
2019-05-12T16:50:17.059Z,65.00
2019-05-12T16:52:45.593Z,65.90
2019-05-12T16:55:14.567Z,67.20
2019-05-12T16:57:51.262Z,68.40
2019-05-12T17:00:15.542Z,69.90
2019-05-12T17:03:00.099Z,69.90
2019-05-12T17:05:20.148Z,70.00
2019-05-12T17:07:50.212Z,68.90
2019-05-12T17:10:17.039Z,70.80
2019-05-12T17:12:48.422Z,70.30
2019-05-12T17:15:16.244Z,70.90
2019-05-12T17:17:50.839Z,70.70
2019-05-12T17:20:17.647Z,70.80
2019-05-12T17:22:54.599Z,72.30
2019-05-12T17:25:16.415Z,69.90
2019-05-12T17:27:45.857Z,71.90
2019-05-12T17:30:15.622Z,65.00
2019-05-12T17:32:57.486Z,63.80
2019-05-12T17:35:20.195Z,62.90
2019-05-12T17:37:47.302Z,60.00
2019-05-12T17:40:20.250Z,59.00
2019-05-12T17:42:48.256Z,59.30
2019-05-12T17:45:20.347Z,60.10
2019-05-12T17:47:48.691Z,61.40
2019-05-12T17:50:19.298Z,61.40
2019-05-12T17:52:50.445Z,62.00
2019-05-12T17:55:19.345Z,62.50
2019-05-12T17:57:50.384Z,61.90
2019-05-12T18:00:20.151Z,61.70
2019-05-12T18:02:56.203Z,62.50
2019-05-12T18:05:23.252Z,62.90
2019-05-12T18:07:58.652Z,62.50
2019-05-12T18:10:27.071Z,64.70
2019-05-12T18:12:58.289Z,66.70
2019-05-12T18:15:36.058Z,67.50
2019-05-12T18:17:59.961Z,66.50
2019-05-12T18:20:31.252Z,67.00
2019-05-12T18:22:58.932Z,66.80
2019-05-12T18:25:30.251Z,67.20
2019-05-12T18:27:58.018Z,67.50
2019-05-12T18:30:26.603Z,68.30
2019-05-12T18:33:04.329Z,69.10
2019-05-12T18:35:27.980Z,68.70
2019-05-12T18:37:56.498Z,68.60
2019-05-12T18:40:28.084Z,68.70
2019-05-12T18:42:58.671Z,69.20
2019-05-12T18:45:29.936Z,71.00
2019-05-12T18:48:01.030Z,70.70
2019-05-12T18:50:31.639Z,70.60
2019-05-12T18:52:59.703Z,71.20
2019-05-12T18:55:35.922Z,71.40
2019-05-12T18:58:00.638Z,72.10
2019-05-12T19:00:29.204Z,72.90
2019-05-12T19:02:59.590Z,72.80
2019-05-12T19:05:30.863Z,73.00
2019-05-12T19:07:58.716Z,72.70
2019-05-12T19:10:27.788Z,73.30
2019-05-12T19:13:01.813Z,72.80
2019-05-12T19:15:26.555Z,73.70
2019-05-12T19:17:55.466Z,72.90
2019-05-12T19:20:24.225Z,74.10
2019-05-12T19:22:59.391Z,74.50
2019-05-12T19:25:24.006Z,75.10
2019-05-12T19:28:04.663Z,74.70
2019-05-12T19:30:25.189Z,75.80
2019-05-12T19:32:54.780Z,74.90
2019-05-12T19:35:25.034Z,75.60
2019-05-12T19:37:53.997Z,74.70
2019-05-12T19:40:22.856Z,75.80
2019-05-12T19:42:53.619Z,76.10
2019-05-12T19:45:22.037Z,77.00
2019-05-12T19:47:53.606Z,77.10
2019-05-12T19:50:29.399Z,78.10
2019-05-12T19:52:58.021Z,78.10
2019-05-12T19:55:26.984Z,79.00
2019-05-12T19:57:55.426Z,79.30
2019-05-12T20:00:24.058Z,79.60
2019-05-12T20:02:53.738Z,80.40
2019-05-12T20:05:23.694Z,80.10
2019-05-12T20:07:53.716Z,80.10
2019-05-12T20:10:24.390Z,80.40
2019-05-12T20:12:54.709Z,80.50
2019-05-12T20:15:24.152Z,81.60
2019-05-12T20:17:53.552Z,82.80
2019-05-12T20:20:26.560Z,83.40
2019-05-12T20:22:54.176Z,82.50
2019-05-12T20:25:23.629Z,82.50
2019-05-12T20:27:55.767Z,81.60
2019-05-12T20:30:24.110Z,81.40
2019-05-12T20:32:54.068Z,80.50
2019-05-12T20:35:22.682Z,80.40
2019-05-12T20:37:54.543Z,81.20
2019-05-12T20:40:23.880Z,80.70
2019-05-12T20:43:07.300Z,81.60
2019-05-12T20:45:25.716Z,81.70
2019-05-12T20:47:53.367Z,82.20
2019-05-12T20:50:24.222Z,81.70
2019-05-12T20:52:58.486Z,82.00
2019-05-12T20:55:23.435Z,81.90
2019-05-12T20:57:55.988Z,82.80
2019-05-12T21:00:24.428Z,83.20
2019-05-12T21:02:53.904Z,83.00
2019-05-12T21:05:23.755Z,82.90
2019-05-12T21:07:55.803Z,82.90
2019-05-12T21:10:26.447Z,83.00
2019-05-12T21:12:54.299Z,83.40
2019-05-12T21:15:27.706Z,83.40
2019-05-12T21:18:02.683Z,84.00
2019-05-12T21:20:24.408Z,84.20
2019-05-12T21:22:53.866Z,85.40
2019-05-12T21:25:23.296Z,85.20
2019-05-12T21:27:53.752Z,84.50
2019-05-12T21:30:24.707Z,84.80
2019-05-12T21:33:01.100Z,85.10
2019-05-12T21:35:25.873Z,84.80
2019-05-12T21:37:53.730Z,85.70
2019-05-12T21:40:30.219Z,85.50
2019-05-12T21:42:53.734Z,86.10
2019-05-12T21:45:26.536Z,85.80
2019-05-12T21:47:56.333Z,86.20
2019-05-12T21:50:32.197Z,87.10
2019-05-12T21:52:59.532Z,87.10
2019-05-12T21:55:26.548Z,87.90
2019-05-12T21:57:54.466Z,88.10
2019-05-12T22:00:44.795Z,89.00
2019-05-12T22:03:15.427Z,89.20
2019-05-12T22:05:51.602Z,89.20
2019-05-12T22:08:20.689Z,90.20
2019-05-12T22:10:45.100Z,90.20
2019-05-12T22:13:17.620Z,90.40
2019-05-12T22:15:44.442Z,90.50
2019-05-12T22:18:13.059Z,90.30
2019-05-12T22:20:41.507Z,90.30
2019-05-12T22:23:14.310Z,90.70
2019-05-12T22:25:40.597Z,90.90
2019-05-12T22:28:10.377Z,90.80
2019-05-12T22:30:39.601Z,91.20
2019-05-12T22:33:10.589Z,91.40
2019-05-12T22:35:38.479Z,91.50
2019-05-12T22:38:15.314Z,91.60
2019-05-12T22:40:54.485Z,91.60
2019-05-12T22:43:19.769Z,91.70
2019-05-12T22:45:49.432Z,91.90
2019-05-12T22:48:18.235Z,92.00
2019-05-12T22:50:46.887Z,92.10
2019-05-12T22:53:19.389Z,92.40
2019-05-12T22:55:45.603Z,92.50
2019-05-12T22:58:22.510Z,92.90
2019-05-12T23:00:51.365Z,92.90
2019-05-12T23:03:20.025Z,93.10
2019-05-12T23:05:50.761Z,93.20
2019-05-12T23:08:18.631Z,93.10
2019-05-12T23:10:51.370Z,93.30
2019-05-12T23:13:17.436Z,93.50
2019-05-12T23:15:49.392Z,93.70
2019-05-12T23:18:19.524Z,93.90
2019-05-12T23:20:46.640Z,93.90
2019-05-12T23:23:18.717Z,94.10
2019-05-12T23:25:45.360Z,94.20
2019-05-12T23:28:13.778Z,94.20
2019-05-12T23:30:43.678Z,94.50
2019-05-12T23:33:25.576Z,94.50
2019-05-12T23:35:48.662Z,94.70
2019-05-12T23:38:20.872Z,94.50
2019-05-12T23:40:47.882Z,94.40
2019-05-12T23:43:17.279Z,94.20
2019-05-12T23:45:45.780Z,94.20
2019-05-12T23:48:14.500Z,94.40
2019-05-12T23:50:43.836Z,94.20
2019-05-12T23:53:14.002Z,94.40
2019-05-12T23:55:43.801Z,94.20
2019-05-12T23:58:14.488Z,94.10
